createdAt,value
2018-12-23T00:01:39.931Z,6.80
2018-12-23T00:04:07.499Z,6.70
2018-12-23T00:06:35.046Z,6.81
2018-12-23T00:09:04.253Z,6.83
2018-12-23T00:11:31.793Z,6.81
2018-12-23T00:14:00.345Z,6.87
2018-12-23T00:16:27.882Z,6.88
2018-12-23T00:18:55.466Z,6.83
2018-12-23T00:21:23.035Z,6.83
2018-12-23T00:23:50.862Z,6.84
2018-12-23T00:26:18.404Z,6.80
2018-12-23T00:28:45.926Z,6.87
2018-12-23T00:31:13.482Z,6.92
2018-12-23T00:33:41.036Z,6.95
2018-12-23T00:36:08.568Z,6.98
2018-12-23T00:38:36.120Z,6.94
2018-12-23T00:41:03.696Z,6.90
2018-12-23T00:43:31.266Z,6.96
2018-12-23T00:45:58.795Z,6.93
2018-12-23T00:48:26.611Z,6.96
2018-12-23T00:50:54.120Z,6.91
2018-12-23T00:53:21.661Z,6.96
2018-12-23T00:55:49.191Z,6.93
2018-12-23T00:58:16.845Z,6.97
2018-12-23T01:00:44.552Z,7.00
2018-12-23T01:03:12.110Z,6.94
2018-12-23T01:05:39.646Z,6.91
2018-12-23T01:08:07.228Z,6.87
2018-12-23T01:10:35.013Z,6.84
2018-12-23T01:13:02.569Z,6.74
2018-12-23T01:15:30.141Z,6.72
2018-12-23T01:17:57.733Z,6.68
2018-12-23T01:20:25.259Z,6.67
2018-12-23T01:22:52.801Z,6.73
2018-12-23T01:25:20.353Z,6.73
2018-12-23T01:27:47.886Z,6.66
2018-12-23T01:30:15.441Z,6.65
2018-12-23T01:32:42.973Z,6.60
2018-12-23T01:35:10.580Z,6.62
2018-12-23T01:37:38.102Z,6.57
2018-12-23T01:40:06.268Z,6.52
2018-12-23T01:42:33.821Z,6.48
2018-12-23T01:45:02.069Z,6.55
2018-12-23T01:47:29.603Z,6.50
2018-12-23T01:49:57.141Z,6.47
2018-12-23T01:52:24.677Z,6.51
2018-12-23T01:54:53.645Z,6.47
2018-12-23T01:57:21.386Z,6.47
2018-12-23T01:59:48.922Z,6.48
2018-12-23T02:02:16.485Z,6.49
2018-12-23T02:04:43.990Z,6.51
2018-12-23T02:07:11.537Z,6.57
2018-12-23T02:09:39.140Z,6.57
2018-12-23T02:12:06.665Z,6.53
2018-12-23T02:14:34.187Z,6.61
2018-12-23T02:17:02.057Z,6.58
2018-12-23T02:19:29.592Z,6.60
2018-12-23T02:21:57.135Z,6.63
2018-12-23T02:24:24.785Z,6.65
2018-12-23T02:26:52.327Z,6.61
2018-12-23T02:29:19.890Z,6.75
2018-12-23T02:31:47.425Z,6.75
2018-12-23T02:34:14.953Z,6.67
2018-12-23T02:36:42.504Z,6.74
2018-12-23T02:39:10.030Z,6.70
2018-12-23T02:41:37.581Z,6.69
2018-12-23T02:44:05.097Z,6.68
2018-12-23T02:46:32.701Z,6.65
2018-12-23T02:49:00.265Z,6.55
2018-12-23T02:51:27.781Z,6.60
2018-12-23T02:53:55.334Z,6.55
2018-12-23T02:56:22.855Z,6.52
2018-12-23T02:58:50.432Z,6.48
2018-12-23T03:01:17.985Z,6.48
2018-12-23T03:03:45.508Z,6.42
2018-12-23T03:06:13.654Z,6.50
2018-12-23T03:08:41.217Z,6.46
2018-12-23T03:11:08.812Z,6.45
2018-12-23T03:13:36.427Z,6.47
2018-12-23T03:16:04.054Z,6.45
2018-12-23T03:18:31.571Z,6.42
2018-12-23T03:20:59.247Z,6.40
2018-12-23T03:23:26.789Z,6.44
2018-12-23T03:25:54.335Z,6.41
2018-12-23T03:28:21.871Z,6.44
2018-12-23T03:30:49.441Z,6.50
2018-12-23T03:33:16.981Z,6.50
2018-12-23T03:35:44.482Z,6.60
2018-12-23T03:38:12.169Z,6.58
2018-12-23T03:40:39.712Z,6.56
2018-12-23T03:43:07.462Z,6.56
2018-12-23T03:45:34.999Z,6.56
2018-12-23T03:48:02.530Z,6.59
2018-12-23T03:50:30.046Z,6.59
2018-12-23T03:52:57.593Z,6.63
2018-12-23T03:55:25.112Z,6.63
2018-12-23T03:57:52.823Z,6.66
2018-12-23T04:00:20.331Z,6.57
2018-12-23T04:02:47.880Z,6.58
2018-12-23T04:05:15.435Z,6.58
2018-12-23T04:07:42.976Z,6.54
2018-12-23T04:10:10.505Z,6.55
2018-12-23T04:12:38.059Z,6.54
2018-12-23T04:15:05.727Z,6.58
2018-12-23T04:17:33.268Z,6.58
2018-12-23T04:20:01.098Z,6.53
2018-12-23T04:22:29.025Z,6.47
2018-12-23T04:24:56.525Z,6.49
2018-12-23T04:27:24.062Z,6.43
2018-12-23T04:29:51.586Z,6.46
2018-12-23T04:32:19.095Z,6.50
2018-12-23T04:34:46.937Z,6.47
2018-12-23T04:37:14.468Z,6.54
2018-12-23T04:39:41.975Z,6.60
2018-12-23T04:42:09.806Z,6.61
2018-12-23T04:44:37.359Z,6.67
2018-12-23T04:47:05.000Z,6.59
2018-12-23T04:49:32.921Z,6.61
2018-12-23T04:52:00.765Z,6.61
2018-12-23T04:54:28.350Z,6.57
2018-12-23T04:56:55.874Z,6.62
2018-12-23T04:59:23.449Z,6.66
2018-12-23T05:01:51.035Z,6.64
2018-12-23T05:04:18.555Z,6.62
2018-12-23T05:06:46.098Z,6.62
2018-12-23T05:09:13.660Z,6.53
2018-12-23T05:11:41.240Z,6.63
2018-12-23T05:14:08.749Z,6.66
2018-12-23T05:16:36.282Z,6.56
2018-12-23T05:19:03.788Z,6.55
2018-12-23T05:21:31.337Z,6.62
2018-12-23T05:23:58.850Z,6.56
2018-12-23T05:26:26.397Z,6.41
2018-12-23T05:28:53.914Z,6.36
2018-12-23T05:31:21.462Z,6.34
2018-12-23T05:33:49.385Z,6.34
2018-12-23T05:36:16.906Z,6.31
2018-12-23T05:38:44.504Z,6.23
2018-12-23T05:41:12.033Z,6.24
2018-12-23T05:43:39.589Z,6.17
2018-12-23T05:46:07.386Z,6.21
2018-12-23T05:48:35.209Z,6.20
2018-12-23T05:51:02.768Z,6.21
2018-12-23T05:53:30.339Z,6.18
2018-12-23T05:55:57.314Z,6.25
2018-12-23T05:58:24.810Z,6.26
2018-12-23T06:00:52.366Z,6.30
2018-12-23T06:03:19.899Z,6.33
2018-12-23T06:06:34.595Z,6.33
2018-12-23T06:09:21.691Z,6.27
2018-12-23T06:12:08.853Z,6.24
2018-12-23T06:14:55.864Z,6.25
2018-12-23T06:17:43.004Z,6.28
2018-12-23T06:20:30.111Z,6.27
2018-12-23T06:26:10.719Z,6.20
2018-12-23T06:28:57.783Z,6.18
2018-12-23T06:31:44.802Z,6.21
2018-12-23T06:34:31.935Z,6.14
2018-12-23T06:37:19.123Z,6.07
2018-12-23T06:42:59.515Z,6.03
2018-12-23T07:21:20.800Z,6.04
2018-12-23T13:57:43.517Z,7.08
2018-12-23T14:00:30.560Z,7.14
2018-12-23T14:06:10.967Z,7.15
2018-12-23T14:08:59.072Z,7.17
2018-12-23T14:11:46.244Z,7.18
2018-12-23T14:14:33.505Z,7.17
2018-12-23T14:17:20.646Z,7.15
2018-12-23T14:20:07.750Z,7.21
2018-12-23T14:22:54.885Z,7.22
2018-12-23T14:28:35.244Z,7.35
2018-12-23T14:31:22.618Z,7.38
2018-12-23T14:34:09.682Z,7.33
2018-12-23T14:36:56.739Z,7.36
2018-12-23T14:39:43.801Z,7.36
2018-12-23T18:08:06.915Z,8.81
2018-12-23T19:58:10.704Z,9.36
2018-12-23T20:00:57.938Z,9.35
2018-12-23T20:06:38.322Z,9.38
2018-12-23T20:09:25.488Z,9.35
2018-12-23T20:12:12.582Z,9.38
2018-12-23T20:14:59.727Z,9.38
2018-12-23T20:17:46.800Z,9.43
2018-12-23T20:20:33.961Z,9.44
2018-12-23T20:23:21.296Z,9.39
2018-12-23T20:26:08.444Z,9.44
2018-12-23T20:31:48.836Z,9.50
2018-12-23T20:34:35.893Z,9.48
2018-12-23T20:37:22.955Z,9.50
2018-12-23T20:40:10.045Z,9.48
2018-12-23T20:57:59.823Z,9.50
2018-12-23T21:00:46.931Z,9.47
2018-12-23T21:03:34.015Z,9.50
2018-12-23T21:06:21.078Z,9.53
2018-12-23T21:09:08.451Z,9.50
2018-12-23T21:11:55.581Z,9.51
2018-12-23T21:14:42.727Z,9.61
2018-12-23T21:17:29.767Z,9.60
2018-12-23T21:20:16.875Z,9.57
2018-12-23T21:23:04.076Z,9.54
